Main page
METAR-TAF:

METAR-TAF

Airports :

Beirut Air Base

Beirut, Lebanon

latitude: 33-49N, longitude: 035-29E, elevation: 29 m

Current weather observation

The report was made 57 minutes ago, at 05:00 UTC
Wind 4 kt from the Southeast
Temperature 27°C
Humidity 70%
Pressure 1010 hPa
Visibility: 8000 m

METAR: OLBA 250500Z 14004KT 8000 NSC 27/21 Q1010 NOSIG

Time: 08:57 (05:57 UTC)

Forecast

The report was made 1 hour and 57 minutes ago, at 04:00 UTC
Forecast valid from 25 at 06 UTC to 26 at 12 UTC
Wind 13 kt from the West/Southwest
Visibility: 8000 m
Scattered clouds at a height of 2500 ft
Temporary
from 25 at 12 UTC to 26 at 03 UTC
Visibility: 5000 m
mist
Becoming
from 25 at 21 UTC to 25 at 24 UTC
Wind 3 kt from variable directions
Becoming
from 26 at 08 UTC to 26 at 10 UTC
Wind 10 kt from the West/Southwest

TAF: OLBA 250400Z 2506/2612 25013KT 8000 SCT025 TEMPO 2512/2603 5000 BR BECMG 2521/2524 VRB03KT BECMG 2608/2610 25010KT

Weather observations and forecasts of more than 4000 airports (METAR and TAF reports).

The available stations are represented by yellow and red dots on the map.

Hover mouse over dot to see the name of the station.

Then click to see weather observations and forecasts.

To change the map : click on the green buttons with a black cross to zoom in, on the green button with a dash to zoom out, or on the green arrows for adjacent maps.


METAR-TAF: